sensor_id;sensor_type;location;lat;lon;timestamp;P1;durP1;ratioP1;P2;durP2;ratioP2
27863;SDS011;15980;51.092;13.916;2023-08-17T00:01:05;14.95;;;8.82;;
27863;SDS011;15980;51.092;13.916;2023-08-17T00:11:05;13.85;;;9.38;;
27863;SDS011;15980;51.092;13.916;2023-08-17T00:21:05;14.65;;;10.45;;
27863;SDS011;15980;51.092;13.916;2023-08-17T00:31:06;14.55;;;9.85;;
27863;SDS011;15980;51.092;13.916;2023-08-17T00:41:06;16.40;;;11.45;;
27863;SDS011;15980;51.092;13.916;2023-08-17T00:51:06;19.48;;;11.35;;
27863;SDS011;15980;51.092;13.916;2023-08-17T01:01:07;19.58;;;13.45;;
27863;SDS011;15980;51.092;13.916;2023-08-17T01:21:23;17.20;;;11.55;;
27863;SDS011;15980;51.092;13.916;2023-08-17T01:31:28;16.23;;;11.82;;
27863;SDS011;15980;51.092;13.916;2023-08-17T01:41:32;15.07;;;10.50;;
27863;SDS011;15980;51.092;13.916;2023-08-17T01:51:33;20.17;;;8.95;;
27863;SDS011;15980;51.092;13.916;2023-08-17T02:01:33;15.05;;;9.10;;
27863;SDS011;15980;51.092;13.916;2023-08-17T02:11:33;12.75;;;8.68;;
27863;SDS011;15980;51.092;13.916;2023-08-17T02:21:33;13.45;;;9.63;;
27863;SDS011;15980;51.092;13.916;2023-08-17T02:31:34;11.80;;;8.27;;
27863;SDS011;15980;51.092;13.916;2023-08-17T02:41:34;14.00;;;8.82;;
27863;SDS011;15980;51.092;13.916;2023-08-17T02:51:34;10.40;;;8.05;;
27863;SDS011;15980;51.092;13.916;2023-08-17T03:01:35;12.23;;;9.15;;
27863;SDS011;15980;51.092;13.916;2023-08-17T03:11:36;10.30;;;8.02;;
27863;SDS011;15980;51.092;13.916;2023-08-17T03:21:37;14.98;;;8.50;;
27863;SDS011;15980;51.092;13.916;2023-08-17T03:31:37;10.82;;;7.90;;
27863;SDS011;15980;51.092;13.916;2023-08-17T03:41:38;10.43;;;7.72;;
27863;SDS011;15980;51.092;13.916;2023-08-17T03:51:38;13.60;;;8.25;;
27863;SDS011;15980;51.092;13.916;2023-08-17T04:01:38;15.70;;;8.88;;
27863;SDS011;15980;51.092;13.916;2023-08-17T04:11:39;13.60;;;7.78;;
27863;SDS011;15980;51.092;13.916;2023-08-17T04:21:39;13.30;;;8.18;;
27863;SDS011;15980;51.092;13.916;2023-08-17T04:31:39;11.82;;;8.32;;
27863;SDS011;15980;51.092;13.916;2023-08-17T04:41:39;12.43;;;8.38;;
27863;SDS011;15980;51.092;13.916;2023-08-17T04:51:40;11.77;;;7.22;;
27863;SDS011;15980;51.092;13.916;2023-08-17T05:01:40;10.18;;;7.57;;
27863;SDS011;15980;51.092;13.916;2023-08-17T05:11:40;9.95;;;6.32;;
27863;SDS011;15980;51.092;13.916;2023-08-17T05:21:41;9.48;;;6.43;;
27863;SDS011;15980;51.092;13.916;2023-08-17T05:31:41;8.07;;;6.25;;
27863;SDS011;15980;51.092;13.916;2023-08-17T05:41:41;8.95;;;5.80;;
27863;SDS011;15980;51.092;13.916;2023-08-17T05:51:42;8.05;;;5.70;;
27863;SDS011;15980;51.092;13.916;2023-08-17T06:01:42;10.35;;;6.68;;
27863;SDS011;15980;51.092;13.916;2023-08-17T06:11:42;8.60;;;5.82;;
27863;SDS011;15980;51.092;13.916;2023-08-17T06:21:42;7.55;;;6.10;;
27863;SDS011;15980;51.092;13.916;2023-08-17T06:31:43;7.13;;;5.85;;
27863;SDS011;15980;51.092;13.916;2023-08-17T06:41:43;7.38;;;5.57;;
27863;SDS011;15980;51.092;13.916;2023-08-17T06:51:43;8.10;;;5.78;;
27863;SDS011;15980;51.092;13.916;2023-08-17T07:01:44;7.18;;;5.30;;
27863;SDS011;15980;51.092;13.916;2023-08-17T07:11:44;8.68;;;5.72;;
27863;SDS011;15980;51.092;13.916;2023-08-17T07:21:44;9.13;;;6.47;;
27863;SDS011;15980;51.092;13.916;2023-08-17T07:31:44;8.98;;;6.07;;
27863;SDS011;15980;51.092;13.916;2023-08-17T07:41:45;9.23;;;5.97;;
27863;SDS011;15980;51.092;13.916;2023-08-17T07:51:45;7.32;;;5.55;;
27863;SDS011;15980;51.092;13.916;2023-08-17T08:01:45;7.32;;;5.70;;
27863;SDS011;15980;51.092;13.916;2023-08-17T08:11:46;8.48;;;6.50;;
27863;SDS011;15980;51.092;13.916;2023-08-17T08:21:46;10.18;;;7.25;;
27863;SDS011;15980;51.092;13.916;2023-08-17T08:31:46;8.75;;;6.15;;
27863;SDS011;15980;51.092;13.916;2023-08-17T08:41:47;7.97;;;6.57;;
27863;SDS011;15980;51.092;13.916;2023-08-17T08:51:48;9.05;;;6.32;;
27863;SDS011;15980;51.092;13.916;2023-08-17T09:01:50;12.00;;;6.63;;
27863;SDS011;15980;51.092;13.916;2023-08-17T09:11:50;8.63;;;6.40;;
27863;SDS011;15980;51.092;13.916;2023-08-17T09:21:50;8.45;;;6.65;;
27863;SDS011;15980;51.092;13.916;2023-08-17T09:31:51;11.25;;;5.95;;
27863;SDS011;15980;51.092;13.916;2023-08-17T09:41:51;7.50;;;6.80;;
27863;SDS011;15980;51.092;13.916;2023-08-17T09:51:55;9.50;;;6.53;;
27863;SDS011;15980;51.092;13.916;2023-08-17T10:01:59;15.90;;;7.38;;
27863;SDS011;15980;51.092;13.916;2023-08-17T10:12:01;9.20;;;7.27;;
27863;SDS011;15980;51.092;13.916;2023-08-17T10:32:12;9.93;;;7.10;;
27863;SDS011;15980;51.092;13.916;2023-08-17T10:42:13;12.02;;;7.53;;
27863;SDS011;15980;51.092;13.916;2023-08-17T10:52:14;13.53;;;8.43;;
27863;SDS011;15980;51.092;13.916;2023-08-17T11:02:14;9.52;;;7.30;;
27863;SDS011;15980;51.092;13.916;2023-08-17T11:12:27;13.70;;;7.85;;
27863;SDS011;15980;51.092;13.916;2023-08-17T11:22:27;15.05;;;8.73;;
27863;SDS011;15980;51.092;13.916;2023-08-17T11:42:28;13.07;;;8.23;;
27863;SDS011;15980;51.092;13.916;2023-08-17T11:52:29;12.93;;;8.97;;
27863;SDS011;15980;51.092;13.916;2023-08-17T12:02:29;11.70;;;7.40;;
27863;SDS011;15980;51.092;13.916;2023-08-17T12:12:30;8.73;;;7.07;;
27863;SDS011;15980;51.092;13.916;2023-08-17T12:22:30;7.37;;;6.47;;
27863;SDS011;15980;51.092;13.916;2023-08-17T12:32:30;8.57;;;7.03;;
27863;SDS011;15980;51.092;13.916;2023-08-17T12:42:31;7.85;;;7.05;;
27863;SDS011;15980;51.092;13.916;2023-08-17T12:52:31;11.38;;;7.32;;
27863;SDS011;15980;51.092;13.916;2023-08-17T13:02:31;10.23;;;6.53;;
27863;SDS011;15980;51.092;13.916;2023-08-17T13:12:32;9.45;;;6.57;;
27863;SDS011;15980;51.092;13.916;2023-08-17T13:22:32;7.22;;;6.53;;
27863;SDS011;15980;51.092;13.916;2023-08-17T13:32:32;10.10;;;6.60;;
27863;SDS011;15980;51.092;13.916;2023-08-17T13:42:33;11.30;;;7.63;;
27863;SDS011;15980;51.092;13.916;2023-08-17T13:52:34;9.65;;;6.60;;
27863;SDS011;15980;51.092;13.916;2023-08-17T14:02:34;8.52;;;7.28;;
27863;SDS011;15980;51.092;13.916;2023-08-17T14:12:35;12.48;;;7.47;;
27863;SDS011;15980;51.092;13.916;2023-08-17T14:22:35;12.85;;;7.28;;
27863;SDS011;15980;51.092;13.916;2023-08-17T14:32:35;11.52;;;7.50;;
27863;SDS011;15980;51.092;13.916;2023-08-17T14:42:37;10.93;;;7.20;;
27863;SDS011;15980;51.092;13.916;2023-08-17T14:52:37;12.77;;;7.63;;
27863;SDS011;15980;51.092;13.916;2023-08-17T15:02:37;10.57;;;8.10;;
27863;SDS011;15980;51.092;13.916;2023-08-17T15:12:38;11.33;;;7.60;;
27863;SDS011;15980;51.092;13.916;2023-08-17T15:22:38;14.20;;;8.00;;
27863;SDS011;15980;51.092;13.916;2023-08-17T15:32:38;10.83;;;7.07;;
27863;SDS011;15980;51.092;13.916;2023-08-17T15:42:39;8.07;;;6.77;;
27863;SDS011;15980;51.092;13.916;2023-08-17T15:52:39;8.88;;;6.63;;
27863;SDS011;15980;51.092;13.916;2023-08-17T16:02:39;10.63;;;7.27;;
27863;SDS011;15980;51.092;13.916;2023-08-17T16:12:40;8.93;;;6.63;;
27863;SDS011;15980;51.092;13.916;2023-08-17T16:22:40;9.50;;;7.27;;
27863;SDS011;15980;51.092;13.916;2023-08-17T16:32:40;8.70;;;6.90;;
27863;SDS011;15980;51.092;13.916;2023-08-17T16:42:41;10.25;;;7.55;;
27863;SDS011;15980;51.092;13.916;2023-08-17T16:52:41;11.50;;;8.13;;
27863;SDS011;15980;51.092;13.916;2023-08-17T17:02:41;11.07;;;8.20;;
27863;SDS011;15980;51.092;13.916;2023-08-17T17:12:41;11.68;;;7.88;;
27863;SDS011;15980;51.092;13.916;2023-08-17T17:22:42;10.07;;;7.72;;
27863;SDS011;15980;51.092;13.916;2023-08-17T17:32:42;14.73;;;8.60;;
27863;SDS011;15980;51.092;13.916;2023-08-17T17:42:42;16.17;;;7.68;;
27863;SDS011;15980;51.092;13.916;2023-08-17T17:52:43;10.73;;;7.18;;
27863;SDS011;15980;51.092;13.916;2023-08-17T18:02:43;15.30;;;7.85;;
27863;SDS011;15980;51.092;13.916;2023-08-17T18:12:43;17.13;;;8.45;;
27863;SDS011;15980;51.092;13.916;2023-08-17T18:22:43;14.23;;;7.97;;
27863;SDS011;15980;51.092;13.916;2023-08-17T18:32:44;10.55;;;8.15;;
27863;SDS011;15980;51.092;13.916;2023-08-17T18:42:44;9.52;;;6.90;;
27863;SDS011;15980;51.092;13.916;2023-08-17T18:52:44;8.43;;;6.05;;
27863;SDS011;15980;51.092;13.916;2023-08-17T19:02:45;10.77;;;6.22;;
27863;SDS011;15980;51.092;13.916;2023-08-17T19:12:45;7.57;;;6.00;;
27863;SDS011;15980;51.092;13.916;2023-08-17T19:22:45;10.40;;;5.55;;
27863;SDS011;15980;51.092;13.916;2023-08-17T19:32:45;7.47;;;5.38;;
27863;SDS011;15980;51.092;13.916;2023-08-17T19:42:46;7.40;;;5.30;;
27863;SDS011;15980;51.092;13.916;2023-08-17T19:52:47;9.00;;;5.60;;
27863;SDS011;15980;51.092;13.916;2023-08-17T20:02:48;8.13;;;5.50;;
27863;SDS011;15980;51.092;13.916;2023-08-17T20:12:48;7.15;;;5.20;;
27863;SDS011;15980;51.092;13.916;2023-08-17T20:22:48;10.98;;;5.38;;
27863;SDS011;15980;51.092;13.916;2023-08-17T20:32:48;9.88;;;5.63;;
27863;SDS011;15980;51.092;13.916;2023-08-17T20:42:49;5.88;;;5.15;;
27863;SDS011;15980;51.092;13.916;2023-08-17T20:52:49;7.65;;;5.68;;
27863;SDS011;15980;51.092;13.916;2023-08-17T21:02:49;7.35;;;5.47;;
27863;SDS011;15980;51.092;13.916;2023-08-17T21:12:50;8.32;;;5.60;;
27863;SDS011;15980;51.092;13.916;2023-08-17T21:22:50;7.57;;;5.95;;
27863;SDS011;15980;51.092;13.916;2023-08-17T21:32:51;10.18;;;6.20;;
27863;SDS011;15980;51.092;13.916;2023-08-17T21:42:52;7.90;;;6.15;;
27863;SDS011;15980;51.092;13.916;2023-08-17T21:52:53;8.50;;;6.38;;
27863;SDS011;15980;51.092;13.916;2023-08-17T22:02:53;8.45;;;6.35;;
27863;SDS011;15980;51.092;13.916;2023-08-17T22:12:53;9.85;;;6.32;;
27863;SDS011;15980;51.092;13.916;2023-08-17T22:22:54;8.90;;;6.82;;
27863;SDS011;15980;51.092;13.916;2023-08-17T22:32:54;8.48;;;6.60;;
27863;SDS011;15980;51.092;13.916;2023-08-17T22:42:54;11.20;;;7.78;;
27863;SDS011;15980;51.092;13.916;2023-08-17T22:52:55;11.48;;;7.20;;
27863;SDS011;15980;51.092;13.916;2023-08-17T23:02:55;11.15;;;7.55;;
27863;SDS011;15980;51.092;13.916;2023-08-17T23:12:55;14.85;;;8.68;;
27863;SDS011;15980;51.092;13.916;2023-08-17T23:22:55;13.05;;;7.82;;
27863;SDS011;15980;51.092;13.916;2023-08-17T23:32:56;15.52;;;8.10;;
27863;SDS011;15980;51.092;13.916;2023-08-17T23:42:57;12.70;;;7.68;;
27863;SDS011;15980;51.092;13.916;2023-08-17T23:52:57;10.25;;;7.45;;
